Home > Products > Valid Products > TAF

000
FTUS43 KIWX 110520
TAFFWA
TAF
KFWA 110520Z 1106/1206 28008KT P6SM -SHSN SCT025 BKN040
      TEMPO 1111/1115 4SM -SHSN OVC025
     FM112200 25006KT P6SM SCT050 BKN250=



000
FTUS43 KIWX 110520
TAFFWA
TAF
KFWA 110520Z 1106/1206 28008KT P6SM -SHSN SCT025 BKN040
      TEMPO 1111/1115 4SM -SHSN OVC025
     FM112200 25006KT P6SM SCT050 BKN250=



000
FTUS43 KIWX 110318 AAA
TAFFWA
TAF AMD
KFWA 110318Z 1103/1124 27011KT P6SM BKN050
     FM110600 28010KT P6SM -SN BKN030
     FM111800 27011KT P6SM BKN040=



000
FTUS43 KIWX 102340
TAFFWA
TAF
KFWA 102340Z 1100/1124 26013G20KT 6SM -SHSN BR SCT025 BKN040
      TEMPO 1100/1102 5SM -SHSN BKN025
     FM110200 28010KT P6SM -SN BKN030=



000
FTUS43 KIWX 102340
TAFFWA
TAF
KFWA 102340Z 1100/1124 26013G20KT 6SM -SHSN BR SCT025 BKN040
      TEMPO 1100/1102 5SM -SHSN BKN025
     FM110200 28010KT P6SM -SN BKN030=



000
FTUS43 KIWX 101720
TAFFWA
TAF
KFWA 101720Z 1018/1118 27014G22KT 4SM -SHSN BR BKN020
     FM110000 28010KT P6SM -SHSN BKN025=



000
FTUS43 KIWX 101720
TAFFWA
TAF
KFWA 101720Z 1018/1118 27014G22KT 5SM -SHSN BR BKN020
     FM110000 28010KT P6SM -SHSN BKN025=



000
FTUS43 KIWX 101129
TAFFWA
TAF
KFWA 101129Z 1012/1112 26017G23KT 3SM -SN BR SCT015 OVC035
      TEMPO 1012/1016 2SM -SHSN BR OVC015
     FM101600 30014G23KT 4SM -SHSN BR BKN020
     FM110000 30010KT P6SM -SHSN BKN025=



000
FTUS43 KIWX 101129
TAFFWA
TAF
KFWA 101129Z 1012/1112 26017G23KT 3SM -SN BR SCT015 OVC035
      TEMPO 1012/1016 2SM -SHSN BR OVC015
     FM101600 30014G23KT 4SM -SHSN BR BKN020
     FM110000 30010KT P6SM -SHSN BKN025=



000
FTUS43 KIWX 100537
TAFFWA
TAF
KFWA 100537Z 1006/1106 26016KT 5SM -SN BR SCT015 OVC025
      TEMPO 1008/1012 2SM -SHSN BR OVC015
     FM101400 30014G22KT 4SM -SHSN BR OVC020
     FM110000 30010KT P6SM -SHSN BKN025=



000
FTUS43 KIWX 100537
TAFFWA
TAF
KFWA 100537Z 1006/1106 26016KT 5SM -SN BR SCT015 OVC025
      TEMPO 1008/1012 2SM -SHSN BR OVC015
     FM101400 30014G22KT 4SM -SHSN BR OVC020
     FM110000 30010KT P6SM -SHSN BKN025=



000
FTUS43 KIWX 100325 AAA
TAFFWA
TAF AMD
KFWA 100325Z 1003/1024 28015G22KT 6SM -SHSN SCT015 OVC022
      TEMPO 1005/1007 4SM -SHSN BKN015
     FM100700 30013G21KT 4SM -SHSN OVC015
      TEMPO 1007/1011 2SM -SHSN
     FM101400 30014G22KT 4SM -SHSN OVC020=



000
FTUS43 KIWX 092340
TAFFWA
TAF
KFWA 092340Z 1000/1024 29015G22KT 6SM -SHSN SCT015 OVC022
      TEMPO 1000/1003 4SM -SHSN BKN015
     FM100300 29014G21KT 4SM -SHSN OVC018
     FM100700 30013G21KT 2SM -SHSN OVC015
     FM101400 30014G22KT 4SM -SHSN OVC020=



000
FTUS43 KIWX 091720
TAFFWA
TAF
KFWA 091720Z 0918/1018 27015G22KT 6SM -SHSN OVC015
     FM100200 28014KT 4SM -SHSN OVC015
      TEMPO 1002/1006 2SM -SHSN=



000
FTUS43 KIWX 091720
TAFFWA
TAF
KFWA 091720Z 0918/1018 27015G22KT 6SM -SHSN OVC015
     FM100200 28014KT 4SM -SHSN OVC015
      TEMPO 1002/1006 2SM -SHSN=



000
FTUS43 KIWX 091121
TAFFWA
TAF
KFWA 091121Z 0912/1012 28014KT 6SM -SHSN OVC015
      TEMPO 0912/0916 3SM -SHSN OVC008
     FM091600 29015G22KT 6SM -SHSN OVC020
     FM100200 28014KT 4SM -SHSN OVC015
      TEMPO 1002/1006 2SM -SHSN=



000
FTUS43 KIWX 090536
TAFFWA
TAF
KFWA 090536Z 0906/1006 28011KT P6SM -SHSN OVC015
     FM090800 28012KT 5SM -SHSN OVC015
     FM091400 30012G19KT P6SM -SHSN OVC025
      TEMPO 1002/1006 5SM -SHSN OVC015=



000
FTUS43 KIWX 090536
TAFFWA
TAF
KFWA 090536Z 0906/1006 28011KT P6SM -SHSN OVC015
     FM090800 28012KT 5SM -SHSN OVC015
     FM091400 30012G19KT P6SM -SHSN OVC025
      TEMPO 1002/1006 5SM -SHSN OVC015=



000
FTUS43 KIWX 082341
TAFFWA
TAF
KFWA 082341Z 0900/0924 28011KT 6SM -SN OVC015
      TEMPO 0900/0902 3SM -SHSN OVC009
     FM090400 28011KT P6SM OVC015
     FM090800 28012KT 5SM -SHSN OVC015
     FM091400 30012G19KT P6SM OVC025=



000
FTUS43 KIWX 082341
TAFFWA
TAF
KFWA 082341Z 0900/0924 28011KT 6SM -SN OVC015
      TEMPO 0900/0902 3SM -SHSN OVC009
     FM090400 28011KT P6SM OVC015
     FM090800 28012KT 5SM -SHSN OVC015
     FM091400 30012G19KT P6SM OVC025=



000
FTUS43 KIWX 082211 AAA
TAFFWA
TAF AMD
KFWA 082211Z 0822/0918 28011KT P6SM OVC015
      TEMPO 0822/0901 3SM -SHSN OVC009
     FM090900 28012KT 5SM -SHSN OVC015
     FM091400 30012KT P6SM OVC030=



000
FTUS43 KIWX 081738
TAFFWA
TAF
KFWA 081738Z 0818/0918 28009KT P6SM SCT015 BKN040
     FM082000 29010KT P6SM OVC012
     FM090900 28012KT 5SM -SHSN OVC015
     FM091400 30012KT P6SM OVC030=



000
FTUS43 KIWX 081738
TAFFWA
TAF
KFWA 081738Z 0818/0918 28009KT P6SM SCT015 BKN040
     FM082000 29010KT P6SM OVC012
     FM090900 28012KT 5SM -SHSN OVC015
     FM091400 30012KT P6SM OVC030=



000
FTUS43 KIWX 081438 AAA
TAFFWA
TAF AMD
KFWA 081438Z 0815/0912 25008KT P6SM SCT040 OVC080
     FM081800 28010KT P6SM BKN040
     FM090200 28010KT P6SM VCSH OVC025
     FM090900 29012KT 3SM -SHSN OVC015=



000
FTUS43 KIWX 081438 AAA
TAFFWA
TAF AMD
KFWA 081438Z 0815/0912 25008KT P6SM SCT040 OVC080
     FM081800 28010KT P6SM BKN040
     FM090200 28010KT P6SM VCSH OVC025
     FM090900 29012KT 3SM -SHSN OVC015=



000
FTUS43 KIWX 081139
TAFFWA
TAF
KFWA 081139Z 0812/0912 25010KT P6SM SCT040 OVC080
     FM081400 26009KT P6SM OVC025
     FM081800 29012G17KT 3SM -SHSN OVC025
      TEMPO 0820/0824 2SM -SHSN OVC020
     FM090000 29011KT P6SM VCSH OVC025
     FM090900 29012KT 2SM -SHSN OVC015=



000
FTUS43 KIWX 081139
TAFFWA
TAF
KFWA 081139Z 0812/0912 25010KT P6SM SCT040 OVC080
     FM081400 26009KT P6SM OVC025
     FM081800 29012G17KT 3SM -SHSN OVC025
      TEMPO 0820/0824 2SM -SHSN OVC020
     FM090000 29011KT P6SM VCSH OVC025
     FM090900 29012KT 2SM -SHSN OVC015=



    US Dept of Commerce
    National Oceanic and Atmospheric Administration
    National Weather Service
    1325 East West Highway
    Silver Spring, MD 20910
    Page Author: NWS Internet Services Team
Disclaimer
Information Quality
Credits
Glossary
Privacy Policy
Freedom of Information Act (FOIA)
About Us
Career Opportunities